Aérodrome :
LOGIN :

S'inscrire | Disclaimer

   EN    FR    IT 

 










Légende :    VFR   VFR Marginal   IFR   IFR Intensif   IFR Très Intensif
Visi : 
Plafond : 
>= 8 km
>= 3000ft
5 à 8 km
1000 à 3000 ft
1500m à 5 km
500 à 1000 ft
800 à 1500m
200 à 500 ft
< 800m
< 200 ft
Symboles :   Orages  Brouillard  Fortes neiges  Fortes précipitations  Vent > 20 kt
SIGMETs :   Divers  Orages  Givrage  Turbulence  Onde Orograph.  Cendres Volcan.






- Altitude de l'aérodrome : 38 ft
- Code IATA : TRE


EGPU - Tiree

DERNIER METAR :
  • 120450Z AUTO 36028KT 5000 RA FEW030/// BKN034/// BKN044/// 07/05 Q0994

METARs EXPIRÉS :
  • 120420Z AUTO 36026KT 260V070 5000 RA FEW016/// SCT030/// BKN044/// 08/06 Q0993
  • 120350Z AUTO 36031KT 270V040 8000 -RA FEW017/// SCT034/// 08/06 Q0993
  • 120320Z AUTO VRB27KT 9999 -RASN FEW009/// SCT017/// BKN024/// 08/07 Q0992
  • 120250Z AUTO 36020KT 330V030 8000 RA FEW011/// BKN030/// 07/06 Q0992

TAF TAF EGPU
Valide du 12 à 06h jusqu'au 12 à 15h UTC


120500Z 1206/1215 01022KT 9999 SCT030
TEMPO 1206/1215 5000 SHRA BKN014
TEMPO 1206/1210 35025G35KT
PROB30
TEMPO 1206/1208 3000 +SHRA BKN009
BECMG 1211/1214 34017KT



MET'MAP, la Météo Aéronautique d'un coup d'oeil ! - Copyright ORBIFLY Décembre 2007 - Disclaimer

ORBIFLY MET'MAP TEAM :

Programmation & Développement : Alexandra Zaïnal
Conception & Développement : Baudouin d'Aumeries
Co-Programmation & Développement : Marc-Olivier Méhu
Soutien technique & logistique : Manuel Goepfert

Contact : metmap@orbifly.com




SOURCES & CREDITS :

   NOAA